Time;durP1;ratioP1;P1;durP2;ratioP2;P2;SDS_P1;SDS_P2;PMS_P1;PMS_P2;Temp;Humidity;BMP_temperature;BMP_pressure;BME280_temperature;BME280_humidity;BME280_pressure;Samples;Min_cycle;Max_cycle;Signal;HPM_P1;HPM_P2
2023/08/30 00:02:15;;;;;;;0.20;0.20;;;;;;;15.69;85.71;99586.72;5027212;28;20045;-74
2023/08/30 00:04:42;;;;;;;0.20;0.20;;;;;;;15.68;85.42;99587.81;5041179;28;20084;-69
2023/08/30 00:07:10;;;;;;;0.20;0.20;;;;;;;15.64;85.54;99589.59;5011904;28;20046;-71
2023/08/30 00:09:36;;;;;;;0.20;0.20;;;;;;;15.68;85.76;99585.06;5006417;28;20065;-72
2023/08/30 00:12:03;;;;;;;0.20;0.20;;;;;;;15.67;85.84;99586.19;5007216;28;20509;-72
2023/08/30 00:14:30;;;;;;;0.20;0.20;;;;;;;15.69;85.79;99586.72;5006487;28;20053;-73
2023/08/30 00:16:57;;;;;;;0.20;0.20;;;;;;;15.70;86.17;99578.13;5007233;28;20561;-70
2023/08/30 00:19:23;;;;;;;0.20;0.20;;;;;;;15.69;86.26;99590.28;5007245;28;20100;-71
2023/08/30 00:21:50;;;;;;;0.20;0.20;;;;;;;15.64;86.11;99579.38;5006764;28;20096;-72
2023/08/30 00:24:16;;;;;;;0.20;0.20;;;;;;;15.64;86.44;99582.16;5006148;28;20099;-72
2023/08/30 00:26:42;;;;;;;0.20;0.20;;;;;;;15.57;86.54;99577.06;5007830;28;20384;-73
2023/08/30 00:29:09;;;;;;;0.10;0.10;;;;;;;15.56;86.75;99585.63;5003020;28;20062;-74
2023/08/30 00:31:35;;;;;;;0.20;0.20;;;;;;;15.53;86.65;99589.84;4989519;28;20069;-74
2023/08/30 00:34:03;;;;;;;0.20;0.20;;;;;;;15.53;87.03;99589.03;5004608;28;20107;-73
2023/08/30 00:36:29;;;;;;;0.10;0.10;;;;;;;15.42;86.95;99563.69;5005688;28;20272;-74
2023/08/30 00:38:55;;;;;;;0.20;0.20;;;;;;;15.50;86.92;99575.88;5005749;28;20088;-73
2023/08/30 00:41:21;;;;;;;0.20;0.20;;;;;;;15.48;87.11;99591.91;5008427;28;20583;-74
2023/08/30 00:43:48;;;;;;;0.20;0.20;;;;;;;15.48;87.40;99598.22;5010564;28;20077;-75
2023/08/30 00:46:15;;;;;;;0.20;0.20;;;;;;;15.50;87.27;99593.22;5006649;28;20058;-74
2023/08/30 00:48:42;;;;;;;0.20;0.20;;;;;;;15.51;86.93;99589.31;5004538;28;20042;-73
2023/08/30 00:51:10;;;;;;;0.20;0.20;;;;;;;15.49;87.12;99602.59;5003966;28;20042;-74
2023/08/30 00:53:37;;;;;;;0.20;0.20;;;;;;;15.50;87.28;99607.00;5005861;28;20056;-73
2023/08/30 00:56:04;;;;;;;0.20;0.20;;;;;;;15.35;86.91;99585.31;5005565;28;20050;-73
2023/08/30 00:58:30;;;;;;;0.20;0.20;;;;;;;15.41;86.89;99606.91;4986968;28;20112;-75
2023/08/30 01:00:57;;;;;;;0.20;0.20;;;;;;;15.44;86.72;99611.00;5009086;28;20403;-75
2023/08/30 01:03:23;;;;;;;0.20;0.20;;;;;;;15.43;86.00;99610.19;5008277;28;20061;-75
2023/08/30 01:05:49;;;;;;;0.20;0.20;;;;;;;15.44;85.62;99617.31;5004866;28;20049;-75
2023/08/30 01:08:17;;;;;;;0.20;0.20;;;;;;;15.47;85.32;99612.34;5003886;28;20030;-74
2023/08/30 01:10:56;;;;;;;0.20;0.20;;;;;;;15.46;85.28;99617.00;5005973;28;20108;-74
2023/08/30 01:13:27;;;;;;;0.20;0.20;;;;;;;15.39;84.73;99600.91;4987632;28;20108;-75
2023/08/30 01:15:55;;;;;;;0.10;0.10;;;;;;;15.50;85.11;99619.97;5004401;28;20050;-73
2023/08/30 01:18:26;;;;;;;0.20;0.20;;;;;;;15.50;85.08;99614.47;5003261;28;20491;-75
2023/08/30 01:20:54;;;;;;;0.20;0.20;;;;;;;15.49;85.06;99621.88;5008763;28;20049;-74
2023/08/30 01:23:40;;;;;;;0.20;0.20;;;;;;;15.47;85.00;99621.41;4986117;28;20464;-74
2023/08/30 01:26:11;;;;;;;0.20;0.20;;;;;;;15.44;85.06;99620.06;4969848;28;20050;-74
2023/08/30 01:28:39;;;;;;;0.20;0.20;;;;;;;15.43;84.63;99623.94;5006255;28;20070;-74
2023/08/30 01:31:13;;;;;;;0.20;0.20;;;;;;;15.44;84.88;99620.06;5004676;28;20046;-75
2023/08/30 01:33:41;;;;;;;0.20;0.20;;;;;;;15.37;84.40;99625.22;5006491;28;20046;-74
2023/08/30 01:36:08;;;;;;;0.20;0.20;;;;;;;15.31;84.18;99619.00;5004854;28;20130;-74
2023/08/30 01:38:35;;;;;;;0.20;0.20;;;;;;;15.28;84.79;99624.31;5003075;28;20057;-75
2023/08/30 01:41:02;;;;;;;0.20;0.20;;;;;;;15.24;85.21;99629.66;5005213;28;20065;-75
2023/08/30 01:43:30;;;;;;;0.15;0.15;;;;;;;15.22;85.04;99629.16;5002321;28;20057;-74
2023/08/30 01:46:00;;;;;;;0.20;0.20;;;;;;;15.20;84.51;99630.56;5007467;28;20057;-75
2023/08/30 01:48:27;;;;;;;0.20;0.20;;;;;;;15.13;84.77;99625.47;5005707;28;20042;-72
2023/08/30 01:50:58;;;;;;;0.20;0.20;;;;;;;15.16;84.84;99635.88;5005594;28;20131;-71
2023/08/30 01:53:26;;;;;;;0.10;0.10;;;;;;;15.15;84.78;99637.81;5018535;28;20183;-72
2023/08/30 01:55:52;;;;;;;0.20;0.20;;;;;;;15.15;84.76;99637.00;4999835;28;20154;-71
2023/08/30 01:58:19;;;;;;;0.10;0.10;;;;;;;15.14;84.60;99632.63;4999707;28;20112;-72
2023/08/30 02:00:45;;;;;;;0.10;0.10;;;;;;;15.12;84.74;99634.88;4997861;28;20065;-71
2023/08/30 02:03:14;;;;;;;0.20;0.20;;;;;;;15.09;84.89;99630.78;5004520;28;20140;-74
2023/08/30 02:05:49;;;;;;;0.20;0.20;;;;;;;15.09;84.54;99633.53;4987880;28;20073;-75
2023/08/30 02:08:17;;;;;;;0.20;0.20;;;;;;;15.11;84.96;99634.03;5002678;28;20053;-74
2023/08/30 02:10:45;;;;;;;;;;;;;;;15.13;84.54;99642.00;5002660;28;20042;-76
2023/08/30 02:13:12;;;;;;;0.20;0.20;;;;;;;15.13;84.29;99633.75;5003619;28;20402;-76
2023/08/30 02:15:41;;;;;;;0.20;0.20;;;;;;;15.14;84.72;99640.88;5004968;28;20050;-76
2023/08/30 02:18:09;;;;;;;0.10;0.10;;;;;;;15.15;84.47;99639.75;4988426;28;20054;-74
2023/08/30 02:20:37;;;;;;;0.10;0.10;;;;;;;15.17;84.40;99632.81;5004744;28;20588;-76
2023/08/30 02:23:03;;;;;;;0.17;0.17;;;;;;;15.16;84.83;99627.63;5004548;28;20074;-71
2023/08/30 02:25:30;;;;;;;0.20;0.20;;;;;;;15.20;84.57;99630.56;5003938;28;20402;-72
2023/08/30 02:27:56;;;;;;;0.20;0.20;;;;;;;15.19;84.46;99629.75;5004868;28;20042;-71
2023/08/30 02:30:22;;;;;;;0.20;0.20;;;;;;;15.18;84.50;99641.88;5006109;28;20049;-72
2023/08/30 02:32:48;;;;;;;0.13;0.13;;;;;;;15.19;84.19;99634.44;5003563;28;20188;-71
2023/08/30 02:35:16;;;;;;;0.20;0.20;;;;;;;15.17;84.05;99632.00;5005134;28;20602;-75
2023/08/30 02:37:44;;;;;;;0.20;0.20;;;;;;;15.19;84.15;99638.00;5005602;28;20049;-74
2023/08/30 02:40:11;;;;;;;0.20;0.20;;;;;;;15.18;83.85;99633.63;5003645;28;20053;-75
2023/08/30 02:42:38;;;;;;;0.10;0.10;;;;;;;15.13;84.29;99637.28;5005831;28;20052;-75
2023/08/30 02:45:05;;;;;;;0.20;0.20;;;;;;;15.16;84.29;99644.97;5003377;28;20062;-71
2023/08/30 02:47:31;;;;;;;0.20;0.20;;;;;;;15.23;84.14;99647.28;5002089;28;20050;-72
2023/08/30 02:50:00;;;;;;;0.10;0.10;;;;;;;15.29;83.63;99654.31;5004949;28;20584;-71
2023/08/30 02:52:26;;;;;;;0.20;0.20;;;;;;;15.31;83.52;99654.00;4999888;28;20063;-72
2023/08/30 02:54:54;;;;;;;0.20;0.20;;;;;;;15.30;83.19;99649.63;4985184;28;20133;-70
2023/08/30 02:57:20;;;;;;;0.20;0.20;;;;;;;15.30;82.93;99657.88;4968979;28;20598;-72
2023/08/30 02:59:46;;;;;;;0.10;0.10;;;;;;;15.28;82.91;99652.69;4970997;28;20058;-72
2023/08/30 03:02:13;;;;;;;0.20;0.20;;;;;;;15.30;83.05;99658.69;5005299;28;20042;-71
2023/08/30 03:04:39;;;;;;;0.20;0.20;;;;;;;15.35;83.40;99654.19;5005566;28;20136;-72
2023/08/30 03:07:05;;;;;;;0.20;0.20;;;;;;;15.33;82.86;99649.00;4986780;28;20069;-72
2023/08/30 03:09:31;;;;;;;0.20;0.20;;;;;;;15.32;82.56;99650.13;4983877;28;20429;-72
2023/08/30 03:11:59;;;;;;;0.20;0.20;;;;;;;15.26;82.48;99640.34;4982241;28;20039;-71
2023/08/30 03:14:25;;;;;;;;;;;;;;;15.19;82.94;99646.25;4983582;28;20065;-71
2023/08/30 03:16:51;;;;;;;0.20;0.20;;;;;;;15.15;82.68;99634.25;4999456;28;19931;-72
2023/08/30 03:19:18;;;;;;;0.20;0.20;;;;;;;15.13;82.97;99653.81;5001133;28;20096;-72
2023/08/30 03:21:44;;;;;;;0.20;0.20;;;;;;;15.03;82.49;99630.09;5004739;28;20538;-71
2023/08/30 03:24:11;;;;;;;0.20;0.20;;;;;;;15.22;82.48;99651.19;5002722;28;20107;-70
2023/08/30 03:26:37;;;;;;;0.20;0.20;;;;;;;15.29;82.49;99648.78;5003577;28;20050;-72
2023/08/30 03:29:05;;;;;;;0.20;0.20;;;;;;;15.36;82.37;99647.53;4973352;28;20061;-71
2023/08/30 03:31:32;;;;;;;0.20;0.20;;;;;;;15.36;81.92;99650.28;5002369;28;20624;-75
2023/08/30 03:33:58;;;;;;;0.20;0.20;;;;;;;15.37;81.54;99647.25;4985459;28;20046;-74
2023/08/30 03:36:24;;;;;;;0.20;0.20;;;;;;;15.42;81.68;99652.63;5005146;28;20599;-71
2023/08/30 03:38:50;;;;;;;0.20;0.20;;;;;;;15.47;81.49;99656.41;5003238;28;20141;-70
2023/08/30 03:41:18;;;;;;;0.20;0.20;;;;;;;15.44;81.25;99649.56;5005394;28;20042;-71
2023/08/30 03:43:44;;;;;;;0.20;0.20;;;;;;;15.48;81.22;99649.78;5002751;28;20054;-71
2023/08/30 03:46:12;;;;;;;0.20;0.20;;;;;;;15.48;81.68;99647.81;5006413;28;20041;-70
2023/08/30 03:48:39;;;;;;;0.20;0.20;;;;;;;15.50;81.42;99651.06;5003303;28;20042;-72
2023/08/30 03:51:05;;;;;;;0.20;0.20;;;;;;;15.51;81.39;99643.63;4971057;28;20148;-71
2023/08/30 03:53:32;;;;;;;0.20;0.20;;;;;;;15.52;80.92;99642.50;4998948;28;20074;-71
2023/08/30 03:55:59;;;;;;;0.20;0.20;;;;;;;15.42;80.79;99638.06;4983187;28;20046;-72
2023/08/30 03:58:25;;;;;;;0.20;0.20;;;;;;;15.49;80.83;99648.66;4984191;28;20050;-72
2023/08/30 04:00:51;;;;;;;0.20;0.20;;;;;;;15.49;80.64;99649.44;4987486;28;20050;-72
2023/08/30 04:03:19;;;;;;;0.20;0.20;;;;;;;15.54;80.25;99662.28;5009360;28;20397;-72
2023/08/30 04:05:45;;;;;;;0.20;0.20;;;;;;;15.50;80.06;99648.31;4991158;28;20424;-71
2023/08/30 04:08:12;;;;;;;0.20;0.20;;;;;;;15.58;79.57;99655.03;5008153;28;20088;-72
2023/08/30 04:10:39;;;;;;;0.20;0.20;;;;;;;15.56;78.73;99649.00;5009187;28;20053;-70
2023/08/30 04:13:06;;;;;;;0.20;0.20;;;;;;;15.58;78.89;99652.25;5003458;28;20417;-73
2023/08/30 04:15:33;;;;;;;0.20;0.20;;;;;;;15.63;78.78;99654.91;4993143;28;20062;-76
2023/08/30 04:18:00;;;;;;;0.20;0.20;;;;;;;15.67;77.94;99649.56;4971806;28;20050;-76
2023/08/30 04:20:29;;;;;;;0.20;0.20;;;;;;;15.74;76.88;99652.72;4995238;28;20053;-74
2023/08/30 04:22:56;;;;;;;0.28;0.28;;;;;;;15.76;77.48;99661.50;4986436;28;20050;-76
2023/08/30 04:25:23;;;;;;;0.20;0.20;;;;;;;15.71;77.31;99647.84;4993345;28;20062;-73
2023/08/30 04:27:49;;;;;;;0.27;0.27;;;;;;;15.82;77.40;99653.91;5004085;28;20265;-74
2023/08/30 04:30:17;;;;;;;0.20;0.20;;;;;;;15.86;77.27;99668.69;5005272;28;20580;-74
2023/08/30 04:32:43;;;;;;;0.30;0.30;;;;;;;15.86;76.71;99657.66;5006414;28;20057;-73
2023/08/30 04:35:10;;;;;;;0.20;0.20;;;;;;;15.88;76.71;99664.50;5008779;28;20064;-74
2023/08/30 04:37:39;;;;;;;0.20;0.20;;;;;;;15.93;76.09;99657.25;4993362;28;20049;-74
2023/08/30 04:40:08;;;;;;;0.20;0.20;;;;;;;15.95;75.97;99664.09;5007932;28;20394;-74
2023/08/30 04:42:36;;;;;;;0.20;0.20;;;;;;;15.97;76.07;99666.50;5007712;28;20065;-74
2023/08/30 04:45:02;;;;;;;0.20;0.20;;;;;;;15.77;75.52;99634.75;5006222;28;20077;-75
2023/08/30 04:47:31;;;;;;;0.20;0.20;;;;;;;15.91;75.76;99667.78;4985344;28;20046;-74
2023/08/30 04:49:58;;;;;;;0.20;0.20;;;;;;;15.90;76.01;99672.47;5004518;28;20598;-73
2023/08/30 04:52:24;;;;;;;0.30;0.30;;;;;;;15.87;76.12;99671.16;5006746;28;20065;-74
2023/08/30 04:54:54;;;;;;;0.32;0.30;;;;;;;15.85;76.31;99673.41;4972149;28;20069;-75
2023/08/30 04:57:22;;;;;;;0.30;0.30;;;;;;;15.78;76.03;99673.00;5004565;28;20045;-74
2023/08/30 04:59:48;;;;;;;0.20;0.20;;;;;;;15.78;75.93;99677.72;5004061;28;20049;-74
2023/08/30 05:02:15;;;;;;;0.20;0.20;;;;;;;15.78;75.83;99681.28;4973768;28;20064;-75
2023/08/30 05:04:50;;;;;;;0.20;0.20;;;;;;;15.76;75.72;99677.19;5003035;28;20144;-75
2023/08/30 05:07:16;;;;;;;0.20;0.20;;;;;;;15.84;76.26;99687.50;4996385;28;20042;-75
2023/08/30 05:09:42;;;;;;;0.20;0.20;;;;;;;15.88;75.87;99681.03;4999782;28;20050;-75
2023/08/30 05:12:10;;;;;;;0.20;0.20;;;;;;;16.04;75.86;99682.63;4971694;28;20053;-74
2023/08/30 05:14:37;;;;;;;0.20;0.20;;;;;;;16.10;74.67;99667.59;4994904;28;20473;-75
2023/08/30 05:17:04;;;;;;;0.30;0.30;;;;;;;16.19;74.51;99673.16;5020105;28;20045;-75
2023/08/30 05:19:31;;;;;;;0.20;0.20;;;;;;;16.24;74.12;99664.75;4970485;28;20124;-76
2023/08/30 05:21:57;;;;;;;0.20;0.20;;;;;;;16.28;73.67;99662.97;5004316;28;20138;-75
2023/08/30 05:24:26;;;;;;;0.20;0.20;;;;;;;16.30;73.22;99667.03;4995408;28;20511;-76
2023/08/30 05:26:54;;;;;;;0.22;0.22;;;;;;;16.37;73.47;99665.75;5001396;28;20093;-74
2023/08/30 05:29:24;;;;;;;0.25;0.25;;;;;;;16.50;73.15;99670.38;4974636;28;20065;-75
2023/08/30 05:31:51;;;;;;;0.20;0.20;;;;;;;16.59;73.36;99665.72;4984650;28;20582;-75
2023/08/30 05:34:43;;;;;;;0.30;0.30;;;;;;;16.65;72.44;99643.47;4998476;28;20054;-76
2023/08/30 05:37:18;;;;;;;0.20;0.20;;;;;;;16.66;72.84;99642.34;4961417;28;20437;-76
2023/08/30 05:40:07;;;;;;;0.20;0.20;;;;;;;16.67;72.10;99652.25;4980487;28;20053;-76
2023/08/30 05:42:34;;;;;;;0.20;0.20;;;;;;;16.66;72.00;99656.16;4980912;28;20038;-76
2023/08/30 05:45:01;;;;;;;0.20;0.20;;;;;;;16.71;72.29;99650.50;4980804;28;20065;-76
2023/08/30 05:47:29;;;;;;;0.20;0.20;;;;;;;16.66;71.98;99650.63;5002011;28;20061;-75
2023/08/30 05:49:56;;;;;;;0.25;0.25;;;;;;;16.64;71.90;99650.97;5000852;28;20069;-76
2023/08/30 05:52:22;;;;;;;0.20;0.20;;;;;;;16.66;72.33;99661.66;5000654;28;20054;-76
2023/08/30 05:54:49;;;;;;;0.20;0.20;;;;;;;16.75;71.67;99654.25;5005601;28;20049;-76
2023/08/30 05:57:15;;;;;;;0.20;0.20;;;;;;;16.84;71.32;99659.78;5006334;28;20050;-77
2023/08/30 05:59:42;;;;;;;;;;;;;;;16.93;71.19;99668.09;5003572;28;20053;-75
2023/08/30 06:02:10;;;;;;;0.30;0.30;;;;;;;16.90;70.54;99665.97;4997866;28;20434;-73
2023/08/30 06:04:37;;;;;;;0.20;0.20;;;;;;;16.83;70.31;99663.69;4994033;28;20528;-73
2023/08/30 06:07:04;;;;;;;0.30;0.30;;;;;;;16.84;70.19;99682.69;5000422;28;20049;-75
2023/08/30 06:09:30;;;;;;;0.20;0.20;;;;;;;16.85;70.34;99692.59;5009068;28;20052;-77
2023/08/30 06:11:56;;;;;;;0.20;0.20;;;;;;;16.87;69.87;99684.00;5011938;28;20387;-73
2023/08/30 06:14:22;;;;;;;0.30;0.30;;;;;;;16.93;69.59;99677.19;5008410;28;20049;-76
2023/08/30 06:16:49;;;;;;;0.20;0.20;;;;;;;16.92;69.71;99678.31;5007887;28;20052;-73
2023/08/30 06:19:16;;;;;;;0.20;0.20;;;;;;;17.04;69.42;99687.97;5008910;28;20054;-73
2023/08/30 06:21:43;;;;;;;0.30;0.30;;;;;;;17.16;68.55;99693.69;5009585;28;20060;-73
2023/08/30 06:24:10;;;;;;;0.30;0.30;;;;;;;17.30;69.02;99690.78;5007116;28;20077;-72
2023/08/30 06:26:36;;;;;;;0.30;0.30;;;;;;;17.48;68.12;99680.56;5007146;28;20061;-74
2023/08/30 06:29:02;;;;;;;0.22;0.22;;;;;;;17.63;67.53;99682.00;5010664;28;20054;-73
2023/08/30 06:31:29;;;;;;;0.20;0.20;;;;;;;17.74;66.75;99695.53;5009539;28;20069;-77
2023/08/30 06:33:59;;;;;;;0.23;0.23;;;;;;;17.67;65.74;99680.25;5012335;28;20360;-76
2023/08/30 06:36:30;;;;;;;0.30;0.30;;;;;;;17.53;66.84;99680.38;5002785;28;20053;-73
2023/08/30 06:38:57;;;;;;;0.20;0.20;;;;;;;17.55;66.93;99686.41;4995076;28;20044;-76
2023/08/30 06:41:24;;;;;;;0.30;0.30;;;;;;;17.50;67.04;99689.34;5005714;28;20046;-76
2023/08/30 06:43:52;;;;;;;0.30;0.30;;;;;;;17.59;67.70;99689.34;4979243;28;20062;-74
2023/08/30 06:46:18;;;;;;;0.30;0.30;;;;;;;17.68;67.18;99686.56;5007436;28;20599;-74
2023/08/30 06:48:44;;;;;;;0.30;0.30;;;;;;;17.65;66.45;99688.06;5007265;28;20408;-73
2023/08/30 06:51:14;;;;;;;0.20;0.20;;;;;;;17.52;66.84;99680.72;5016898;28;20042;-75
2023/08/30 06:53:42;;;;;;;0.28;0.28;;;;;;;17.51;66.58;99690.97;5007375;28;20038;-73
2023/08/30 06:56:09;;;;;;;0.30;0.30;;;;;;;17.49;67.33;99692.44;5004199;28;20046;-74
2023/08/30 06:58:36;;;;;;;0.30;0.30;;;;;;;17.43;66.70;99680.72;5006794;28;20050;-76
2023/08/30 07:01:03;;;;;;;0.25;0.25;;;;;;;17.41;67.06;99692.09;4975307;28;20042;-77
2023/08/30 07:03:30;;;;;;;0.30;0.30;;;;;;;17.41;67.08;99694.84;5009626;28;20147;-76
2023/08/30 07:05:57;;;;;;;0.30;0.30;;;;;;;17.43;66.88;99703.63;5006857;28;20048;-76
2023/08/30 07:08:23;;;;;;;0.20;0.20;;;;;;;17.42;66.12;99701.22;5009617;28;20042;-76
2023/08/30 07:10:56;;;;;;;0.20;0.20;;;;;;;17.39;66.39;99696.31;5008454;28;20052;-72
2023/08/30 07:13:26;;;;;;;0.30;0.30;;;;;;;17.44;66.58;99693.41;4974615;28;20060;-73
2023/08/30 07:15:53;;;;;;;0.30;0.30;;;;;;;17.51;66.47;99690.16;5010059;28;20096;-73
2023/08/30 07:18:20;;;;;;;0.30;0.30;;;;;;;17.59;65.71;99697.63;5007155;28;20037;-77
2023/08/30 07:20:47;;;;;;;0.30;0.30;;;;;;;17.66;65.01;99703.50;5008796;28;20104;-77
2023/08/30 07:23:15;;;;;;;0.30;0.30;;;;;;;17.66;65.20;99700.75;5008996;28;20042;-74
2023/08/30 07:25:43;;;;;;;0.30;0.30;;;;;;;17.81;64.60;99698.63;4992578;28;20052;-73
2023/08/30 07:28:12;;;;;;;0.30;0.30;;;;;;;17.82;64.25;99689.97;4987832;28;20037;-77
2023/08/30 07:30:39;;;;;;;0.30;0.30;;;;;;;17.98;63.08;99709.66;5008343;28;20080;-73
2023/08/30 07:33:06;;;;;;;0.30;0.30;;;;;;;18.04;62.81;99704.81;4990201;28;20484;-73
2023/08/30 07:35:33;;;;;;;0.20;0.20;;;;;;;18.11;62.22;99704.31;5005698;28;20049;-73
2023/08/30 07:37:59;;;;;;;0.30;0.30;;;;;;;18.20;62.79;99702.31;5007020;28;20278;-73
2023/08/30 07:40:26;;;;;;;0.30;0.30;;;;;;;18.31;62.50;99696.47;5009193;28;20053;-73
2023/08/30 07:42:53;;;;;;;0.30;0.30;;;;;;;18.44;62.25;99709.28;5009097;28;20046;-73
2023/08/30 07:45:21;;;;;;;0.20;0.20;;;;;;;18.44;62.12;99706.50;5007696;28;20152;-72
2023/08/30 07:47:48;;;;;;;0.22;0.22;;;;;;;18.41;62.22;99709.91;5003316;28;20652;-72
2023/08/30 07:50:15;;;;;;;0.30;0.30;;;;;;;18.35;61.90;99689.94;4989024;28;20046;-75
2023/08/30 07:52:41;;;;;;;0.30;0.30;;;;;;;18.36;62.13;99705.41;4989297;28;20392;-74
2023/08/30 07:55:09;;;;;;;0.30;0.30;;;;;;;18.22;61.79;99674.34;4996566;28;20050;-76
2023/08/30 07:57:37;;;;;;;0.30;0.30;;;;;;;18.58;62.07;99698.00;4996944;28;20058;-77
2023/08/30 08:00:12;;;;;;;0.30;0.30;;;;;;;18.95;61.11;99711.34;4994499;28;20042;-72
2023/08/30 08:02:43;;;;;;;0.30;0.30;;;;;;;19.03;60.85;99696.66;4989710;28;20713;-76
2023/08/30 08:05:12;;;;;;;0.30;0.30;;;;;;;19.23;60.15;99716.44;4990841;28;20162;-73
2023/08/30 08:07:42;;;;;;;0.30;0.30;;;;;;;19.49;59.44;99715.44;4984618;28;20046;-75
2023/08/30 08:10:09;;;;;;;0.30;0.30;;;;;;;19.61;58.81;99723.03;5001889;28;20137;-73
2023/08/30 08:12:36;;;;;;;0.30;0.30;;;;;;;19.58;58.16;99715.38;5008336;28;20049;-76
2023/08/30 08:15:04;;;;;;;0.30;0.30;;;;;;;19.63;58.24;99709.66;5003080;28;20532;-75
2023/08/30 08:17:31;;;;;;;0.40;0.40;;;;;;;20.16;57.45;99715.56;4995964;28;20663;-76
2023/08/30 08:20:06;;;;;;;0.30;0.30;;;;;;;20.91;54.46;99715.72;5007422;28;20523;-74
2023/08/30 08:22:32;;;;;;;0.35;0.35;;;;;;;21.10;53.44;99717.91;5008568;28;20068;-73
2023/08/30 08:24:59;;;;;;;0.30;0.30;;;;;;;21.29;52.61;99722.88;5000876;28;20073;-76
2023/08/30 08:27:26;;;;;;;0.30;0.30;;;;;;;21.47;52.46;99706.75;4994411;28;20042;-77
2023/08/30 08:29:53;;;;;;;0.40;0.40;;;;;;;21.61;51.40;99716.66;5004016;28;20115;-74
2023/08/30 08:32:21;;;;;;;0.30;0.30;;;;;;;21.47;51.33;99728.19;5007419;28;20049;-73
2023/08/30 08:34:48;;;;;;;0.30;0.30;;;;;;;21.09;52.19;99728.25;4996820;28;20046;-71
2023/08/30 08:37:18;;;;;;;0.30;0.30;;;;;;;21.02;52.35;99722.44;4996821;28;20529;-72
2023/08/30 08:39:46;;;;;;;0.30;0.30;;;;;;;20.89;52.63;99745.81;4982998;28;20056;-74
2023/08/30 08:42:16;;;;;;;0.30;0.30;;;;;;;20.95;52.39;99731.34;5006263;28;20050;-73
2023/08/30 08:44:46;;;;;;;0.30;0.30;;;;;;;20.86;52.76;99733.44;5009143;28;20049;-78
2023/08/30 08:47:14;;;;;;;0.30;0.30;;;;;;;20.91;52.67;99730.44;5005599;28;20029;-72
2023/08/30 08:49:42;;;;;;;0.30;0.30;;;;;;;20.95;52.41;99731.34;5002007;28;20491;-73
2023/08/30 08:52:09;;;;;;;0.30;0.30;;;;;;;21.43;51.97;99728.06;5008353;28;20046;-72
2023/08/30 08:54:38;;;;;;;0.30;0.30;;;;;;;21.59;50.77;99733.72;5004515;28;20085;-72
2023/08/30 08:57:06;;;;;;;0.30;0.30;;;;;;;21.63;51.04;99737.41;4999307;28;20043;-72
2023/08/30 08:59:32;;;;;;;0.30;0.30;;;;;;;21.72;50.79;99730.94;4991325;28;20041;-75
2023/08/30 09:01:59;;;;;;;0.30;0.30;;;;;;;21.80;50.51;99741.94;5006627;28;20057;-76
2023/08/30 09:04:26;;;;;;;0.30;0.30;;;;;;;21.74;50.02;99736.97;4998721;28;20052;-75
2023/08/30 09:06:52;;;;;;;0.30;0.30;;;;;;;21.66;50.29;99747.88;5001192;28;20050;-77
2023/08/30 09:09:19;;;;;;;0.30;0.30;;;;;;;21.28;51.18;99751.84;5005687;28;20054;-75
2023/08/30 09:11:53;;;;;;;0.30;0.30;;;;;;;21.08;51.58;99743.28;5007334;28;20487;-75
2023/08/30 09:14:20;;;;;;;0.30;0.30;;;;;;;21.17;51.90;99751.50;5005396;28;20552;-75
2023/08/30 09:16:55;;;;;;;0.30;0.30;;;;;;;21.21;51.67;99754.38;5005600;28;20056;-75
2023/08/30 09:19:21;;;;;;;0.30;0.30;;;;;;;21.09;52.35;99757.97;4966538;28;20045;-75
2023/08/30 09:21:52;;;;;;;0.60;0.60;;;;;;;21.60;51.74;99768.72;5004046;28;20049;-76
2023/08/30 09:24:19;;;;;;;0.50;0.50;;;;;;;22.94;48.41;99763.28;5007729;28;20420;-75
2023/08/30 09:26:50;;;;;;;0.50;0.50;;;;;;;24.16;45.15;99758.06;5006736;28;20053;-77
2023/08/30 09:29:17;;;;;;;0.35;0.35;;;;;;;24.46;43.04;99758.25;5008094;28;20144;-77
2023/08/30 09:31:44;;;;;;;0.40;0.40;;;;;;;24.11;43.83;99767.56;5002599;28;20543;-76
2023/08/30 09:34:11;;;;;;;0.40;0.40;;;;;;;23.86;44.34;99758.63;4998407;28;20054;-76
2023/08/30 09:36:38;;;;;;;0.43;0.43;;;;;;;23.79;44.57;99771.25;5002239;28;20042;-76
2023/08/30 09:39:05;;;;;;;0.40;0.40;;;;;;;24.27;43.56;99763.88;5004770;28;20049;-77
2023/08/30 09:41:32;;;;;;;0.50;0.50;;;;;;;24.60;42.87;99759.69;5002399;28;20046;-76
2023/08/30 09:44:06;;;;;;;0.50;0.50;;;;;;;25.26;41.20;99758.81;4986762;28;20420;-73
2023/08/30 09:46:39;;;;;;;0.63;0.63;;;;;;;25.57;40.32;99746.50;5018327;28;20042;-72
2023/08/30 09:49:06;;;;;;;0.60;0.60;;;;;;;26.31;38.59;99760.22;4982608;28;20490;-73
2023/08/30 09:51:35;;;;;;;0.40;0.40;;;;;;;26.76;37.99;99757.44;5012841;28;20223;-73
2023/08/30 09:54:05;;;;;;;0.40;0.40;;;;;;;26.20;38.49;99771.31;4971562;28;20643;-73
2023/08/30 09:56:35;;;;;;;0.30;0.30;;;;;;;25.30;40.10;99771.69;4983403;28;20046;-72
2023/08/30 09:59:05;;;;;;;0.30;0.30;;;;;;;24.30;41.74;99772.31;4979379;28;20049;-72
2023/08/30 10:01:31;;;;;;;0.30;0.30;;;;;;;23.51;43.83;99777.00;4993420;28;20466;-73
2023/08/30 10:03:57;;;;;;;0.30;0.30;;;;;;;22.99;45.20;99776.97;4992771;28;20108;-76
2023/08/30 10:06:24;;;;;;;0.30;0.30;;;;;;;22.70;46.15;99779.00;5003146;28;20045;-76
2023/08/30 10:08:54;;;;;;;0.30;0.30;;;;;;;22.81;46.08;99787.66;5007809;28;20045;-75
2023/08/30 10:11:22;;;;;;;0.40;0.40;;;;;;;23.07;45.21;99764.00;5023139;28;20068;-75
2023/08/30 10:13:51;;;;;;;0.30;0.30;;;;;;;23.69;43.84;99783.00;5022455;28;20520;-76
2023/08/30 10:16:20;;;;;;;0.50;0.50;;;;;;;23.96;43.09;99779.56;4999365;28;20169;-77
2023/08/30 10:18:50;;;;;;;0.40;0.40;;;;;;;24.57;41.55;99774.41;4987750;28;20074;-76
2023/08/30 10:21:19;;;;;;;0.50;0.50;;;;;;;25.68;39.78;99776.63;5003318;28;20137;-77
2023/08/30 10:23:46;;;;;;;0.50;0.50;;;;;;;26.58;37.42;99771.31;4998557;28;20077;-76
2023/08/30 10:26:14;;;;;;;0.50;0.50;;;;;;;27.21;36.55;99770.66;5005796;28;20140;-76
2023/08/30 10:28:42;;;;;;;0.50;0.50;;;;;;;27.96;35.29;99770.34;5007257;28;20065;-73
2023/08/30 10:31:08;;;;;;;0.50;0.50;;;;;;;28.43;34.36;99766.91;5006764;28;20104;-74
2023/08/30 10:33:48;;;;;;;0.57;0.57;;;;;;;28.87;33.53;99767.78;5008114;28;20520;-76
2023/08/30 10:36:21;;;;;;;0.50;0.50;;;;;;;29.19;32.67;99767.00;5008304;28;20046;-73
2023/08/30 10:38:50;;;;;;;0.50;0.50;;;;;;;28.93;32.94;99759.75;5007650;28;20050;-76
2023/08/30 10:41:21;;;;;;;0.60;0.60;;;;;;;29.02;32.73;99774.22;5010631;28;20030;-72
2023/08/30 10:43:51;;;;;;;0.60;0.60;;;;;;;29.48;32.75;99768.97;5006644;28;20045;-78
2023/08/30 10:46:28;;;;;;;0.60;0.60;;;;;;;29.87;31.56;99762.41;5025361;28;20095;-74
2023/08/30 10:48:59;;;;;;;0.60;0.60;;;;;;;29.95;31.73;99769.63;5004079;28;20046;-76
2023/08/30 10:51:38;;;;;;;0.60;0.60;;;;;;;29.94;31.25;99762.38;5009220;28;20057;-73
2023/08/30 10:54:12;;;;;;;0.43;0.43;;;;;;;29.05;32.72;99764.19;5006988;28;20056;-76
2023/08/30 10:56:49;;;;;;;0.57;0.57;;;;;;;28.09;34.19;99764.38;5008069;28;21261;-77
2023/08/30 10:59:20;;;;;;;0.50;0.50;;;;;;;27.44;34.80;99765.63;5008552;28;20119;-75
2023/08/30 11:01:47;;;;;;;0.40;0.40;;;;;;;26.80;36.34;99760.28;5006692;28;20472;-73
2023/08/30 11:04:16;;;;;;;0.40;0.40;;;;;;;26.53;36.85;99764.06;4998301;28;20457;-73
2023/08/30 11:06:44;;;;;;;0.60;0.60;;;;;;;26.43;36.86;99759.13;5002189;28;20045;-76
2023/08/30 11:09:13;;;;;;;0.70;0.70;;;;;;;27.00;36.07;99772.13;5008322;28;20042;-77
2023/08/30 11:11:41;;;;;;;0.70;0.70;;;;;;;28.06;34.51;99765.94;5005837;28;20034;-73
2023/08/30 11:14:09;;;;;;;0.80;0.80;;;;;;;28.69;33.00;99762.91;5013548;28;20421;-74
2023/08/30 11:16:36;;;;;;;0.90;0.90;;;;;;;29.32;32.34;99761.72;4998529;28;20484;-76
2023/08/30 11:19:04;;;;;;;1.10;1.10;;;;;;;30.40;30.84;99751.31;5009753;28;20046;-77
2023/08/30 11:21:32;;;;;;;;;;;;;;;31.20;29.25;99762.00;5013995;28;20057;-76
2023/08/30 11:24:07;;;;;;;1.10;1.10;;;;;;;32.13;27.91;99747.25;5016287;28;19925;-72
2023/08/30 11:26:34;;;;;;;1.10;1.10;;;;;;;33.08;26.53;99755.94;4996106;28;20684;-74
2023/08/30 11:29:04;;;;;;;1.10;1.10;;;;;;;33.46;26.33;99754.88;5011451;28;20479;-73
2023/08/30 11:31:30;;;;;;;1.27;1.20;;;;;;;33.99;25.52;99759.94;5002219;28;20448;-73
2023/08/30 11:33:58;;;;;;;1.30;1.20;;;;;;;34.06;25.49;99751.25;5010442;28;20049;-74
2023/08/30 11:36:27;;;;;;;1.30;1.20;;;;;;;34.33;24.53;99756.72;5027494;28;20144;-73
2023/08/30 11:38:55;;;;;;;1.10;1.10;;;;;;;35.13;23.77;99751.22;5033515;28;20056;-74